Airfield :
LOGIN :

Register | Disclaimer

   EN    FR    IT 

 










Legend :    VFR   Marginal VFR   IFR   Intensive IFR   Very Intensive IFR
Visi :
Ceiling :
>= 8 km
>= 3000ft
5 to 8 km
1000 to 3000 ft
1500m to 5 km
500 to 1000 ft
800 to 1500m
200 to 500 ft
< 800m
< 200 ft
Symbols :   Thunderstorms  Fog  Heavy snow  Heavy precipitations  Wind > 20 kt
SIGMETs :     Misc.  Thunderstorms  Icing  Turbulence  Mountain Waves  Volcanic Ashes







- Airport Elevation : 512 ft
- IATA code : URO
- Download approach charts


LFOP - Rouen Vallée de Seine

CURRENT METAR :
  • 241330Z AUTO 14007KT CAVOK 22/12 Q1019 NOSIG

EXPIRED METARs :
  • 241300Z AUTO 12009KT CAVOK 23/12 Q1019 NOSIG
  • 241230Z AUTO 13008KT 090V160 9000 NSC 23/13 Q1019 NOSIG
  • 241200Z AUTO 14008KT 100V190 CAVOK 22/12 Q1020 NOSIG
  • 241130Z AUTO 14009KT 100V170 9999 0700 R22/P2000 // NSC 22/12 Q1020
  • 241100Z AUTO 15009KT CAVOK 21/12 Q1020 NOSIG

TAF TAF LFOP
Valid from the 24 at 12:00 until the 25 at 12:00 UTC


241100Z 2412/2512 13009KT CAVOK
TEMPO 2508/2512 4000 RA BKN008
ATIS : +33 2 35 80 80 34
Met : +33 2 32 86 52 80
No reported NOTAMs for that airfield.



MET'MAP, your aeronautical weather chart ! - Copyright ORBIFLY December 2007 - Disclaimer

ORBIFLY MET'MAP TEAM :

Programming & Development : Alexandra Zaïnal
Concept & Development : Baudouin d'Aumeries
Co-Development & Prog : Marc-Olivier Méhu
Technical & hardware support : Manuel Goepfert

Contact : metmap@orbifly.com




SOURCES & CREDITS :

   NOAA